Flight Track Log - Related Links

Times and Time Zones

All times are in EDT time to prevent confusion due to time zone crossing. See the SWA3497 flight status page for this flight to view local times or setup timezone preferences in your user account.

Time Position Orientation Groundspeed Altitude Reporting Facility
EDT Latitude Longitude Course Direction KTS MPH feet Rate Location/Type
Mon 09:52:54 AM 38.9333 -77.5333 288° West 204 235 2,700  Level Potomac TRACON
Mon 09:54:30 AM 38.9250 -77.6517 265° West 234 269 7,800 3,273 Climbing Washington Center
Mon 09:55:28 AM 38.9314 -77.7639 274° West 282 325 11,100 3,102 Climbing Washington Center
Mon 09:56:28 AM 38.9394 -77.8867 275° West 328 377 13,900 2,826 Climbing Washington Center
Mon 09:57:29 AM 38.9458 -77.9883 275° West 349 402 16,800 3,148 Climbing Washington Center
Mon 09:58:00 AM 38.9304 -78.1548 288° West  Level FlightAware Approximate
Mon 09:58:30 AM 38.9550 -78.1489 274° West 367 422 20,300  Level Washington Center
Mon 09:59:28 AM 38.9631 -78.2558 276° West 379 436 22,700 2,723 Climbing Washington Center
Mon 10:00:29 AM 38.9678 -78.4217 272° West 384 442 25,700 2,579 Climbing Washington Center
Mon 10:01:29 AM 38.9711 -78.5339 272° West 390 449 27,900 1,884 Climbing Washington Center
Mon 10:02:30 AM 38.9775 -78.7050 273° West 395 455 29,500 1,714 Climbing Washington Center
Mon 10:03:28 AM 38.9797 -78.8547 271° West 406 467 31,300 1,261 Climbing Washington Center
Mon 10:04:29 AM 38.9839 -79.0017 272° West 417 480 32,000 347 Climbing Washington Center
Mon 10:05:29 AM 38.9878 -79.1542 272° West 422 486 32,000  Level Washington Center
Mon 10:06:30 AM 38.9917 -79.2986 272° West 417 480 32,000  Level Washington Center
Mon 10:07:28 AM 38.9956 -79.4458 272° West 417 480 32,000  Level Washington Center
Mon 10:08:29 AM 38.9989 -79.6008 272° West 428 493 32,000 492 Level Washington Center
Mon 10:09:30 AM 39.0006 -79.7344 271° West 436 502 33,000 1,008 Climbing Washington Center
Mon 10:10:28 AM 39.0036 -79.8817 272° West 426 490 34,000 958 Climbing Washington Center
Mon 10:11:29 AM 39.0044 -80.0286 270° West 420 483 34,900 1,230 Climbing Washington Center
Mon 10:12:30 AM 39.0053 -80.1836 270° West 414 476 36,500 1,415 Climbing Indianapolis Center
Mon 10:13:32 AM 39.0086 -80.3322 272° West 416 479 37,800 726 Climbing Indianapolis Center
Mon 10:14:34 AM 39.0492 -80.4692 291° West 416 479 38,000 97 Climbing Indianapolis Center
Mon 10:15:36 AM 39.1047 -80.6019 298° West 421 484 38,000 97 Level Indianapolis Center
Mon 10:16:38 AM 39.1725 -80.7578 299° West 417 480 38,200 576 Climbing Indianapolis Center
Mon 10:17:41 AM 39.2294 -80.8872 300° West 417 480 39,200 864 Climbing Indianapolis Center
Mon 10:18:43 AM 39.2869 -81.0178 300° West 419 482 40,000 387 Climbing Indianapolis Center
Mon 10:19:45 AM 39.3436 -81.1486 299° West 419 482 40,000  Level Indianapolis Center
Mon 10:20:47 AM 39.4003 -81.2797 299° West 419 482 40,000  Level Indianapolis Center
Mon 10:21:49 AM 39.4564 -81.4119 299° West 422 486 40,000  Level Indianapolis Center
Mon 10:22:51 AM 39.5236 -81.5681 299° West 417 480 40,000  Level Indianapolis Center
Mon 10:23:53 AM 39.5800 -81.7000 299° West 419 482 40,000  Level Indianapolis Center
Mon 10:24:55 AM 39.6353 -81.8311 299° West 416 479 40,000  Level Indianapolis Center
Mon 10:25:57 AM 39.6903 -81.9631 298° West 416 479 40,000  Level Indianapolis Center
Mon 10:26:59 AM 39.7511 -82.1089 299° West 417 480 40,000  Level Indianapolis Center
Mon 10:28:01 AM 39.8069 -82.2400 299° West 413 475 40,000  Level Indianapolis Center
Mon 10:29:03 AM 39.8622 -82.3719 299° West 413 475 40,000  Level Indianapolis Center
Mon 10:30:05 AM 39.9169 -82.5044 298° West 414 476 40,000  Level Indianapolis Center
Mon 10:31:07 AM 39.9722 -82.6375 298° West 416 479 40,000  Level Indianapolis Center
Mon 10:32:09 AM 40.0358 -82.7928 298° West 415 478 40,000  Level Indianapolis Center
Mon 10:33:11 AM 40.0911 -82.9269 298° West 418 481 40,000  Level Indianapolis Center
Mon 10:34:13 AM 40.1456 -83.0614 298° West 417 480 40,000  Level Indianapolis Center
Mon 10:35:15 AM 40.2000 -83.1972 298° West 419 482 40,000  Level Indianapolis Center
Mon 10:36:17 AM 40.2544 -83.3322 298° West 420 483 40,000 -387 Level Indianapolis Center
Mon 10:37:19 AM 40.3083 -83.4661 298° West 417 480 39,200 -919 Descending Indianapolis Center
Mon 10:38:21 AM 40.3697 -83.6192 298° West 407 468 38,100 -968 Descending Indianapolis Center
Mon 10:39:23 AM 40.4233 -83.7544 298° West 414 476 37,200 -919 Descending Indianapolis Center
Mon 10:40:25 AM 40.4769 -83.8886 298° West 413 475 36,200 -919 Descending Indianapolis Center
Mon 10:41:27 AM 40.5300 -84.0228 298° West 411 473 35,300 -968 Descending Indianapolis Center
Mon 10:42:29 AM 40.5833 -84.1581 297° West 414 476 34,200 -1,016 Descending Indianapolis Center
Mon 10:43:31 AM 40.6356 -84.2917 297° West 409 471 33,200 -1,016 Descending Indianapolis Center
Mon 10:44:33 AM 40.6875 -84.4247 297° West 406 467 32,100 -1,000 Descending Indianapolis Center
Mon 10:44:49 AM 40.7017 -84.4625 296° West 403 464 31,900 -1,000 Descending Chicago Center
Mon 10:45:51 AM 40.7514 -84.5906 297° West 395 455 30,800 -919 Descending Chicago Center
Mon 10:46:53 AM 40.8000 -84.7167 297° West 388 447 30,000 -387 Descending Chicago Center
Mon 10:47:55 AM 40.8733 -84.8519 306° West 381 438 30,000  Level Chicago Center
Mon 10:48:56 AM 40.9369 -84.9647 307° West 382 440 30,000  Level Chicago Center
Mon 10:49:58 AM 41.0014 -85.0783 307° West 384 442 30,000  Level Chicago Center
Mon 10:51:00 AM 41.0661 -85.1953 306° West 390 449 30,000 -581 Level Chicago Center
Mon 10:52:02 AM 41.1286 -85.3083 306° West 384 442 28,800 -1,403 Descending Chicago Center
Mon 10:53:04 AM 41.1878 -85.4156 306° West 364 419 27,100 -1,742 Descending Chicago Center
Mon 10:54:06 AM 41.2458 -85.5206 306° West 354 407 25,200 -1,790 Descending Chicago Center
Mon 10:55:08 AM 41.3036 -85.6242 307° West 347 399 23,400 -1,935 Descending Chicago Center
Mon 10:56:10 AM 41.3708 -85.7469 306° West 340 391 21,200 -1,935 Descending Chicago Center
Mon 10:57:12 AM 41.4264 -85.8494 306° West 339 390 19,400 -1,694 Descending Chicago Center
Mon 10:58:14 AM 41.4808 -85.9486 306° West 331 381 17,700 -1,707 Descending Chicago Center
Mon 10:59:15 AM 41.5239 -86.0511 299° West 324 373 15,900 -1,659 Descending Chicago Center
Mon 11:00:17 AM 41.5239 -86.1650 270° West 310 357 14,300 -1,500 Descending Chicago Center
Mon 11:01:19 AM 41.5236 -86.2922 270° West 343 395 12,800 -1,597 Descending Chicago Center
Mon 11:02:21 AM 41.5222 -86.4247 269° West 358 412 11,000 -1,355 Descending Chicago Center
Mon 11:03:23 AM 41.5208 -86.5819 269° West 353 406 10,000 -484 Descending Chicago Center
Mon 11:04:25 AM 41.5206 -86.7169 270° West 347 399 10,000  Level Chicago Center
Mon 11:05:27 AM 41.5200 -86.8350 270° West 325 374 10,000 -387 Level Chicago Center
Mon 11:06:29 AM 41.5172 -86.9364 268° West 280 322 9,200 -1,113 Descending Chicago Center
Mon 11:07:31 AM 41.5167 -87.0389 270° West 279 321 7,700 -1,463 Descending Chicago Center
Mon 11:08:32 AM 41.5153 -87.1450 269° West 288 331 6,200 -1,342 Descending Chicago Center
Mon 11:08:47 AM 41.5167 -87.1833 273° West 275 316 6,000 -160 Descending Chicago TRACON
Mon 11:09:47 AM 41.5167 -87.2833 270° West 263 303 6,000  Level Chicago TRACON
Mon 11:10:47 AM 41.5167 -87.3833 270° West 265 305 6,000  Level Chicago TRACON
Mon 11:11:38 AM 41.5578 -87.4364 316° Northwest 258 297 6,000 -53 Level Chicago Center
Mon 11:12:40 AM 41.6056 -87.5003 315° West 254 292 5,900 -435 Descending Chicago Center
Mon 11:13:42 AM 41.6428 -87.5531 313° West 226 260 5,100 -823 Descending Chicago Center
Mon 11:14:44 AM 41.6764 -87.6014 313° West 200 230 4,200 -1,250 Descending Chicago Center
Mon 11:15:42 AM 41.7167 -87.6500 318° Northwest 179 206 2,600 -1,161 Descending Chicago TRACON
Mon 11:16:48 AM 41.7500 -87.7000 312° West 186 214 1,800 -500 Descending Chicago TRACON
Mon 11:17:42 AM 41.8000 -87.6833 14° North 169 194 1,600 -316 Descending Chicago TRACON
Mon 11:18:42 AM 41.8167 -87.7167 304° West 134 154 1,200 -400 Descending Chicago TRACON

Login

Don't have an account? Register now (free) for customized features, flight alerts, and more!